sensor_id;sensor_type;location;lat;lon;timestamp;temperature;humidity
14727;DHT22;7454;51.256;8.176;2023-09-12T00:00:46;18.60;79.50
14727;DHT22;7454;51.256;8.176;2023-09-12T00:03:12;18.70;79.50
14727;DHT22;7454;51.256;8.176;2023-09-12T00:05:38;18.70;79.50
14727;DHT22;7454;51.256;8.176;2023-09-12T00:08:05;18.70;79.60
14727;DHT22;7454;51.256;8.176;2023-09-12T00:10:30;18.70;79.60
14727;DHT22;7454;51.256;8.176;2023-09-12T00:12:56;18.70;79.50
14727;DHT22;7454;51.256;8.176;2023-09-12T00:15:22;18.70;79.50
14727;DHT22;7454;51.256;8.176;2023-09-12T00:17:47;18.70;79.50
14727;DHT22;7454;51.256;8.176;2023-09-12T00:20:14;18.70;79.50
14727;DHT22;7454;51.256;8.176;2023-09-12T00:22:40;18.70;79.50
14727;DHT22;7454;51.256;8.176;2023-09-12T00:25:06;18.70;79.50
14727;DHT22;7454;51.256;8.176;2023-09-12T00:27:32;18.70;79.50
14727;DHT22;7454;51.256;8.176;2023-09-12T00:29:58;18.70;79.50
14727;DHT22;7454;51.256;8.176;2023-09-12T00:32:24;18.60;79.50
14727;DHT22;7454;51.256;8.176;2023-09-12T00:34:49;18.70;79.50
14727;DHT22;7454;51.256;8.176;2023-09-12T00:37:15;18.70;79.50
14727;DHT22;7454;51.256;8.176;2023-09-12T00:39:41;18.70;79.60
14727;DHT22;7454;51.256;8.176;2023-09-12T00:42:06;18.70;79.60
14727;DHT22;7454;51.256;8.176;2023-09-12T00:44:33;18.60;79.50
14727;DHT22;7454;51.256;8.176;2023-09-12T00:46:59;18.60;79.60
14727;DHT22;7454;51.256;8.176;2023-09-12T00:49:25;18.60;79.60
14727;DHT22;7454;51.256;8.176;2023-09-12T00:51:51;18.60;79.60
14727;DHT22;7454;51.256;8.176;2023-09-12T00:54:17;18.60;79.60
14727;DHT22;7454;51.256;8.176;2023-09-12T00:56:43;18.50;79.60
14727;DHT22;7454;51.256;8.176;2023-09-12T00:59:09;18.50;79.60
14727;DHT22;7454;51.256;8.176;2023-09-12T01:01:35;18.50;79.60
14727;DHT22;7454;51.256;8.176;2023-09-12T01:04:01;18.50;79.70
14727;DHT22;7454;51.256;8.176;2023-09-12T01:06:28;18.40;79.60
14727;DHT22;7454;51.256;8.176;2023-09-12T01:08:54;18.60;79.70
14727;DHT22;7454;51.256;8.176;2023-09-12T01:11:20;18.60;79.70
14727;DHT22;7454;51.256;8.176;2023-09-12T01:13:46;18.50;79.70
14727;DHT22;7454;51.256;8.176;2023-09-12T01:16:11;18.50;79.70
14727;DHT22;7454;51.256;8.176;2023-09-12T01:18:37;18.40;79.70
14727;DHT22;7454;51.256;8.176;2023-09-12T01:29:14;18.40;79.70
14727;DHT22;7454;51.256;8.176;2023-09-12T01:31:41;18.40;79.70
14727;DHT22;7454;51.256;8.176;2023-09-12T01:34:10;18.40;79.70
14727;DHT22;7454;51.256;8.176;2023-09-12T01:36:37;18.40;79.70
14727;DHT22;7454;51.256;8.176;2023-09-12T01:39:02;18.30;79.70
14727;DHT22;7454;51.256;8.176;2023-09-12T01:41:29;18.30;79.70
14727;DHT22;7454;51.256;8.176;2023-09-12T01:43:56;18.30;79.80
14727;DHT22;7454;51.256;8.176;2023-09-12T01:46:22;18.30;79.70
14727;DHT22;7454;51.256;8.176;2023-09-12T01:48:49;18.30;79.70
14727;DHT22;7454;51.256;8.176;2023-09-12T01:51:16;18.30;79.70
14727;DHT22;7454;51.256;8.176;2023-09-12T01:53:44;18.30;79.80
14727;DHT22;7454;51.256;8.176;2023-09-12T01:56:11;18.20;79.70
14727;DHT22;7454;51.256;8.176;2023-09-12T01:58:37;18.20;79.80
14727;DHT22;7454;51.256;8.176;2023-09-12T02:01:03;18.20;79.70
14727;DHT22;7454;51.256;8.176;2023-09-12T02:03:29;18.20;79.80
14727;DHT22;7454;51.256;8.176;2023-09-12T02:05:55;18.20;79.80
14727;DHT22;7454;51.256;8.176;2023-09-12T02:08:22;18.20;79.80
14727;DHT22;7454;51.256;8.176;2023-09-12T02:10:48;18.30;79.80
14727;DHT22;7454;51.256;8.176;2023-09-12T02:13:13;18.30;79.80
14727;DHT22;7454;51.256;8.176;2023-09-12T02:15:39;18.30;79.90
14727;DHT22;7454;51.256;8.176;2023-09-12T02:18:04;18.30;79.90
14727;DHT22;7454;51.256;8.176;2023-09-12T02:20:31;18.30;80.10
14727;DHT22;7454;51.256;8.176;2023-09-12T02:22:57;18.30;80.30
14727;DHT22;7454;51.256;8.176;2023-09-12T02:25:23;18.40;80.40
14727;DHT22;7454;51.256;8.176;2023-09-12T02:27:48;18.40;80.10
14727;DHT22;7454;51.256;8.176;2023-09-12T02:30:14;18.40;80.00
14727;DHT22;7454;51.256;8.176;2023-09-12T02:32:41;18.40;80.30
14727;DHT22;7454;51.256;8.176;2023-09-12T02:35:08;18.40;80.30
14727;DHT22;7454;51.256;8.176;2023-09-12T02:37:33;18.40;80.50
14727;DHT22;7454;51.256;8.176;2023-09-12T02:39:59;18.50;80.60
14727;DHT22;7454;51.256;8.176;2023-09-12T02:42:25;18.50;80.60
14727;DHT22;7454;51.256;8.176;2023-09-12T02:44:51;18.50;80.60
14727;DHT22;7454;51.256;8.176;2023-09-12T02:47:17;18.50;80.60
14727;DHT22;7454;51.256;8.176;2023-09-12T02:49:43;18.40;80.50
14727;DHT22;7454;51.256;8.176;2023-09-12T02:52:09;18.40;80.50
14727;DHT22;7454;51.256;8.176;2023-09-12T02:54:34;18.50;80.60
14727;DHT22;7454;51.256;8.176;2023-09-12T02:57:00;18.50;80.60
14727;DHT22;7454;51.256;8.176;2023-09-12T02:59:26;18.50;80.50
14727;DHT22;7454;51.256;8.176;2023-09-12T03:01:52;18.50;80.50
14727;DHT22;7454;51.256;8.176;2023-09-12T03:04:17;18.50;80.60
14727;DHT22;7454;51.256;8.176;2023-09-12T03:06:43;18.50;80.70
14727;DHT22;7454;51.256;8.176;2023-09-12T03:09:13;18.50;80.70
14727;DHT22;7454;51.256;8.176;2023-09-12T03:11:39;18.50;80.70
14727;DHT22;7454;51.256;8.176;2023-09-12T03:14:04;18.50;80.70
14727;DHT22;7454;51.256;8.176;2023-09-12T03:16:30;18.50;80.80
14727;DHT22;7454;51.256;8.176;2023-09-12T03:18:56;18.50;80.70
14727;DHT22;7454;51.256;8.176;2023-09-12T03:21:21;18.50;80.70
14727;DHT22;7454;51.256;8.176;2023-09-12T03:23:47;18.50;80.70
14727;DHT22;7454;51.256;8.176;2023-09-12T03:26:13;18.50;80.80
14727;DHT22;7454;51.256;8.176;2023-09-12T03:28:39;18.50;80.80
14727;DHT22;7454;51.256;8.176;2023-09-12T03:31:07;18.50;80.80
14727;DHT22;7454;51.256;8.176;2023-09-12T03:33:40;18.50;80.80
14727;DHT22;7454;51.256;8.176;2023-09-12T03:36:07;18.50;80.80
14727;DHT22;7454;51.256;8.176;2023-09-12T03:38:33;18.40;80.80
14727;DHT22;7454;51.256;8.176;2023-09-12T03:40:59;18.40;80.80
14727;DHT22;7454;51.256;8.176;2023-09-12T03:43:26;18.40;80.80
14727;DHT22;7454;51.256;8.176;2023-09-12T03:45:52;18.30;80.70
14727;DHT22;7454;51.256;8.176;2023-09-12T03:48:17;18.40;80.80
14727;DHT22;7454;51.256;8.176;2023-09-12T03:50:44;18.40;80.80
14727;DHT22;7454;51.256;8.176;2023-09-12T03:53:10;18.40;80.80
14727;DHT22;7454;51.256;8.176;2023-09-12T03:55:36;18.40;80.80
14727;DHT22;7454;51.256;8.176;2023-09-12T03:58:02;18.30;80.80
14727;DHT22;7454;51.256;8.176;2023-09-12T04:00:28;18.40;80.80
14727;DHT22;7454;51.256;8.176;2023-09-12T04:02:53;18.40;80.80
14727;DHT22;7454;51.256;8.176;2023-09-12T04:05:19;18.30;80.80
14727;DHT22;7454;51.256;8.176;2023-09-12T04:07:44;18.30;80.80
14727;DHT22;7454;51.256;8.176;2023-09-12T04:10:10;18.30;80.80
14727;DHT22;7454;51.256;8.176;2023-09-12T04:12:36;18.30;80.90
14727;DHT22;7454;51.256;8.176;2023-09-12T04:15:01;18.30;80.80
14727;DHT22;7454;51.256;8.176;2023-09-12T04:17:27;18.20;80.80
14727;DHT22;7454;51.256;8.176;2023-09-12T04:19:53;18.20;80.80
14727;DHT22;7454;51.256;8.176;2023-09-12T04:22:18;18.20;80.90
14727;DHT22;7454;51.256;8.176;2023-09-12T04:24:44;18.20;80.90
14727;DHT22;7454;51.256;8.176;2023-09-12T04:27:10;18.20;80.90
14727;DHT22;7454;51.256;8.176;2023-09-12T04:29:35;18.20;80.90
14727;DHT22;7454;51.256;8.176;2023-09-12T04:32:05;18.20;80.80
14727;DHT22;7454;51.256;8.176;2023-09-12T04:34:31;18.20;80.90
14727;DHT22;7454;51.256;8.176;2023-09-12T04:36:56;18.20;80.80
14727;DHT22;7454;51.256;8.176;2023-09-12T04:39:23;18.20;80.80
14727;DHT22;7454;51.256;8.176;2023-09-12T04:41:49;18.20;80.70
14727;DHT22;7454;51.256;8.176;2023-09-12T04:44:15;18.20;80.80
14727;DHT22;7454;51.256;8.176;2023-09-12T04:46:41;18.20;80.80
14727;DHT22;7454;51.256;8.176;2023-09-12T04:49:06;18.20;80.70
14727;DHT22;7454;51.256;8.176;2023-09-12T04:51:32;18.20;80.70
14727;DHT22;7454;51.256;8.176;2023-09-12T04:53:58;18.20;80.70
14727;DHT22;7454;51.256;8.176;2023-09-12T04:56:23;18.20;80.70
14727;DHT22;7454;51.256;8.176;2023-09-12T04:58:52;18.20;80.70
14727;DHT22;7454;51.256;8.176;2023-09-12T05:01:17;18.30;80.70
14727;DHT22;7454;51.256;8.176;2023-09-12T05:03:44;18.20;80.60
14727;DHT22;7454;51.256;8.176;2023-09-12T05:06:09;18.20;80.60
14727;DHT22;7454;51.256;8.176;2023-09-12T05:08:36;18.20;80.70
14727;DHT22;7454;51.256;8.176;2023-09-12T05:11:01;18.20;80.70
14727;DHT22;7454;51.256;8.176;2023-09-12T05:13:28;18.20;80.70
14727;DHT22;7454;51.256;8.176;2023-09-12T05:15:54;18.20;80.60
14727;DHT22;7454;51.256;8.176;2023-09-12T05:18:21;18.20;80.60
14727;DHT22;7454;51.256;8.176;2023-09-12T05:20:47;18.20;80.60
14727;DHT22;7454;51.256;8.176;2023-09-12T05:23:13;18.20;80.60
14727;DHT22;7454;51.256;8.176;2023-09-12T05:25:39;18.20;80.60
14727;DHT22;7454;51.256;8.176;2023-09-12T05:28:04;18.20;80.60
14727;DHT22;7454;51.256;8.176;2023-09-12T05:30:30;18.20;80.60
14727;DHT22;7454;51.256;8.176;2023-09-12T05:32:56;18.20;80.60
14727;DHT22;7454;51.256;8.176;2023-09-12T05:35:21;18.20;80.60
14727;DHT22;7454;51.256;8.176;2023-09-12T05:37:48;18.20;80.50
14727;DHT22;7454;51.256;8.176;2023-09-12T05:40:14;18.30;80.60
14727;DHT22;7454;51.256;8.176;2023-09-12T05:42:40;18.20;80.50
14727;DHT22;7454;51.256;8.176;2023-09-12T05:45:06;18.30;80.50
14727;DHT22;7454;51.256;8.176;2023-09-12T05:47:32;18.30;80.50
14727;DHT22;7454;51.256;8.176;2023-09-12T05:49:58;18.30;80.50
14727;DHT22;7454;51.256;8.176;2023-09-12T05:52:25;18.30;80.60
14727;DHT22;7454;51.256;8.176;2023-09-12T05:54:51;18.30;80.60
14727;DHT22;7454;51.256;8.176;2023-09-12T05:57:16;18.30;80.60
14727;DHT22;7454;51.256;8.176;2023-09-12T05:59:42;18.30;80.60
14727;DHT22;7454;51.256;8.176;2023-09-12T06:02:08;18.30;80.50
14727;DHT22;7454;51.256;8.176;2023-09-12T06:04:35;18.40;80.60
14727;DHT22;7454;51.256;8.176;2023-09-12T06:07:02;18.40;80.50
14727;DHT22;7454;51.256;8.176;2023-09-12T06:09:28;18.40;80.60
14727;DHT22;7454;51.256;8.176;2023-09-12T06:11:54;18.40;80.50
14727;DHT22;7454;51.256;8.176;2023-09-12T06:14:20;18.50;80.60
14727;DHT22;7454;51.256;8.176;2023-09-12T06:16:45;18.60;80.60
14727;DHT22;7454;51.256;8.176;2023-09-12T06:19:11;18.60;80.60
14727;DHT22;7454;51.256;8.176;2023-09-12T06:21:37;18.60;80.50
14727;DHT22;7454;51.256;8.176;2023-09-12T06:24:15;18.60;80.50
14727;DHT22;7454;51.256;8.176;2023-09-12T06:26:42;18.60;80.60
14727;DHT22;7454;51.256;8.176;2023-09-12T06:29:08;18.60;80.50
14727;DHT22;7454;51.256;8.176;2023-09-12T06:31:34;18.60;80.50
14727;DHT22;7454;51.256;8.176;2023-09-12T06:34:00;18.70;80.50
14727;DHT22;7454;51.256;8.176;2023-09-12T06:36:27;18.70;80.50
14727;DHT22;7454;51.256;8.176;2023-09-12T06:38:58;18.70;80.50
14727;DHT22;7454;51.256;8.176;2023-09-12T06:41:25;18.70;80.50
14727;DHT22;7454;51.256;8.176;2023-09-12T06:43:52;18.80;80.50
14727;DHT22;7454;51.256;8.176;2023-09-12T06:46:18;18.90;80.50
14727;DHT22;7454;51.256;8.176;2023-09-12T06:48:44;19.00;80.70
14727;DHT22;7454;51.256;8.176;2023-09-12T06:51:10;19.10;80.60
14727;DHT22;7454;51.256;8.176;2023-09-12T06:53:36;19.20;80.70
14727;DHT22;7454;51.256;8.176;2023-09-12T06:56:03;19.20;80.70
14727;DHT22;7454;51.256;8.176;2023-09-12T06:58:29;19.30;80.60
14727;DHT22;7454;51.256;8.176;2023-09-12T07:00:55;19.40;80.60
14727;DHT22;7454;51.256;8.176;2023-09-12T07:03:21;19.40;80.70
14727;DHT22;7454;51.256;8.176;2023-09-12T07:05:47;19.50;80.60
14727;DHT22;7454;51.256;8.176;2023-09-12T07:08:14;19.50;80.60
14727;DHT22;7454;51.256;8.176;2023-09-12T07:10:45;19.60;80.60
14727;DHT22;7454;51.256;8.176;2023-09-12T07:13:11;19.70;80.50
14727;DHT22;7454;51.256;8.176;2023-09-12T07:15:37;19.80;80.60
14727;DHT22;7454;51.256;8.176;2023-09-12T07:18:04;19.80;80.60
14727;DHT22;7454;51.256;8.176;2023-09-12T07:20:30;19.90;80.50
14727;DHT22;7454;51.256;8.176;2023-09-12T07:22:56;20.00;80.50
14727;DHT22;7454;51.256;8.176;2023-09-12T07:25:22;20.10;80.60
14727;DHT22;7454;51.256;8.176;2023-09-12T07:27:49;20.10;80.40
14727;DHT22;7454;51.256;8.176;2023-09-12T07:30:15;20.20;80.50
14727;DHT22;7454;51.256;8.176;2023-09-12T07:32:41;20.20;80.40
14727;DHT22;7454;51.256;8.176;2023-09-12T07:35:07;20.30;80.40
14727;DHT22;7454;51.256;8.176;2023-09-12T07:37:33;20.40;80.30
14727;DHT22;7454;51.256;8.176;2023-09-12T07:39:58;20.40;80.20
14727;DHT22;7454;51.256;8.176;2023-09-12T07:42:24;20.40;80.30
14727;DHT22;7454;51.256;8.176;2023-09-12T07:44:50;20.50;80.40
14727;DHT22;7454;51.256;8.176;2023-09-12T07:47:16;20.60;80.30
14727;DHT22;7454;51.256;8.176;2023-09-12T07:49:42;20.60;80.20
14727;DHT22;7454;51.256;8.176;2023-09-12T07:52:07;20.70;80.30
14727;DHT22;7454;51.256;8.176;2023-09-12T07:54:33;20.80;80.30
14727;DHT22;7454;51.256;8.176;2023-09-12T07:56:59;20.90;80.20
14727;DHT22;7454;51.256;8.176;2023-09-12T07:59:25;21.10;80.20
14727;DHT22;7454;51.256;8.176;2023-09-12T08:01:51;21.10;80.10
14727;DHT22;7454;51.256;8.176;2023-09-12T08:04:17;21.20;79.90
14727;DHT22;7454;51.256;8.176;2023-09-12T08:06:42;21.30;79.90
14727;DHT22;7454;51.256;8.176;2023-09-12T08:09:09;21.40;79.80
14727;DHT22;7454;51.256;8.176;2023-09-12T08:11:35;21.50;79.70
14727;DHT22;7454;51.256;8.176;2023-09-12T08:14:01;21.60;79.80
14727;DHT22;7454;51.256;8.176;2023-09-12T08:16:27;21.80;79.70
14727;DHT22;7454;51.256;8.176;2023-09-12T08:18:52;21.80;79.60
14727;DHT22;7454;51.256;8.176;2023-09-12T08:21:18;21.90;79.60
14727;DHT22;7454;51.256;8.176;2023-09-12T08:23:43;22.00;79.50
14727;DHT22;7454;51.256;8.176;2023-09-12T08:26:10;22.00;79.50
14727;DHT22;7454;51.256;8.176;2023-09-12T08:28:35;22.10;79.70
14727;DHT22;7454;51.256;8.176;2023-09-12T08:31:01;22.10;79.50
14727;DHT22;7454;51.256;8.176;2023-09-12T08:33:27;22.10;79.40
14727;DHT22;7454;51.256;8.176;2023-09-12T08:35:52;22.10;79.40
14727;DHT22;7454;51.256;8.176;2023-09-12T08:38:18;22.00;79.30
14727;DHT22;7454;51.256;8.176;2023-09-12T08:40:47;22.00;79.40
14727;DHT22;7454;51.256;8.176;2023-09-12T08:43:14;22.00;79.40
14727;DHT22;7454;51.256;8.176;2023-09-12T08:45:40;22.00;79.30
14727;DHT22;7454;51.256;8.176;2023-09-12T08:48:09;21.90;79.30
14727;DHT22;7454;51.256;8.176;2023-09-12T08:50:35;21.90;79.20
14727;DHT22;7454;51.256;8.176;2023-09-12T08:53:00;21.80;79.20
14727;DHT22;7454;51.256;8.176;2023-09-12T08:55:26;21.80;79.30
14727;DHT22;7454;51.256;8.176;2023-09-12T08:57:52;21.70;79.30
14727;DHT22;7454;51.256;8.176;2023-09-12T09:00:19;21.70;79.20
14727;DHT22;7454;51.256;8.176;2023-09-12T09:02:46;21.70;79.30
14727;DHT22;7454;51.256;8.176;2023-09-12T09:05:12;21.60;79.30
14727;DHT22;7454;51.256;8.176;2023-09-12T09:07:38;21.50;79.30
14727;DHT22;7454;51.256;8.176;2023-09-12T09:10:06;21.60;79.50
14727;DHT22;7454;51.256;8.176;2023-09-12T09:12:33;21.60;79.50
14727;DHT22;7454;51.256;8.176;2023-09-12T09:15:19;21.60;79.50
14727;DHT22;7454;51.256;8.176;2023-09-12T09:17:55;21.60;79.40
14727;DHT22;7454;51.256;8.176;2023-09-12T09:20:40;21.70;79.50
14727;DHT22;7454;51.256;8.176;2023-09-12T09:23:14;21.70;79.50
14727;DHT22;7454;51.256;8.176;2023-09-12T09:25:40;21.70;79.50
14727;DHT22;7454;51.256;8.176;2023-09-12T09:28:19;21.70;79.50
14727;DHT22;7454;51.256;8.176;2023-09-12T09:30:47;21.70;79.60
14727;DHT22;7454;51.256;8.176;2023-09-12T09:33:13;21.70;79.50
14727;DHT22;7454;51.256;8.176;2023-09-12T09:35:43;21.70;79.50
14727;DHT22;7454;51.256;8.176;2023-09-12T09:38:11;21.80;79.60
14727;DHT22;7454;51.256;8.176;2023-09-12T09:40:41;21.80;79.70
14727;DHT22;7454;51.256;8.176;2023-09-12T09:43:08;21.80;79.50
14727;DHT22;7454;51.256;8.176;2023-09-12T09:45:41;21.90;79.60
14727;DHT22;7454;51.256;8.176;2023-09-12T09:48:08;21.90;79.60
14727;DHT22;7454;51.256;8.176;2023-09-12T09:50:34;21.90;79.60
14727;DHT22;7454;51.256;8.176;2023-09-12T09:53:03;21.90;79.50
14727;DHT22;7454;51.256;8.176;2023-09-12T09:55:34;22.00;79.50
14727;DHT22;7454;51.256;8.176;2023-09-12T09:57:59;22.00;79.60
14727;DHT22;7454;51.256;8.176;2023-09-12T10:00:25;22.00;79.50
14727;DHT22;7454;51.256;8.176;2023-09-12T10:02:54;22.00;79.50
14727;DHT22;7454;51.256;8.176;2023-09-12T10:05:21;22.10;79.40
14727;DHT22;7454;51.256;8.176;2023-09-12T10:07:48;22.10;79.40
14727;DHT22;7454;51.256;8.176;2023-09-12T10:10:16;22.20;79.30
14727;DHT22;7454;51.256;8.176;2023-09-12T10:12:45;22.30;79.30
14727;DHT22;7454;51.256;8.176;2023-09-12T10:15:20;22.30;79.10
14727;DHT22;7454;51.256;8.176;2023-09-12T10:18:02;22.50;79.30
14727;DHT22;7454;51.256;8.176;2023-09-12T10:20:42;22.60;79.40
14727;DHT22;7454;51.256;8.176;2023-09-12T10:23:14;22.70;79.30
14727;DHT22;7454;51.256;8.176;2023-09-12T10:25:45;22.70;79.30
14727;DHT22;7454;51.256;8.176;2023-09-12T10:28:11;22.70;79.10
14727;DHT22;7454;51.256;8.176;2023-09-12T10:30:37;22.80;79.00
14727;DHT22;7454;51.256;8.176;2023-09-12T10:33:03;22.70;78.90
14727;DHT22;7454;51.256;8.176;2023-09-12T10:35:30;22.70;78.70
14727;DHT22;7454;51.256;8.176;2023-09-12T10:37:59;22.70;78.80
14727;DHT22;7454;51.256;8.176;2023-09-12T10:40:27;22.70;78.60
14727;DHT22;7454;51.256;8.176;2023-09-12T10:42:55;22.70;78.70
14727;DHT22;7454;51.256;8.176;2023-09-12T10:45:21;22.60;78.60
14727;DHT22;7454;51.256;8.176;2023-09-12T10:47:47;22.60;78.60
14727;DHT22;7454;51.256;8.176;2023-09-12T10:50:13;22.50;78.50
14727;DHT22;7454;51.256;8.176;2023-09-12T10:52:39;22.50;78.40
14727;DHT22;7454;51.256;8.176;2023-09-12T10:55:07;22.50;78.60
14727;DHT22;7454;51.256;8.176;2023-09-12T10:57:33;22.40;78.60
14727;DHT22;7454;51.256;8.176;2023-09-12T11:02:29;22.40;78.60
14727;DHT22;7454;51.256;8.176;2023-09-12T11:04:56;22.40;78.50
14727;DHT22;7454;51.256;8.176;2023-09-12T11:12:41;22.40;78.60
14727;DHT22;7454;51.256;8.176;2023-09-12T11:15:08;22.40;78.40
14727;DHT22;7454;51.256;8.176;2023-09-12T11:17:38;22.40;78.50
14727;DHT22;7454;51.256;8.176;2023-09-12T11:20:05;22.40;78.40
14727;DHT22;7454;51.256;8.176;2023-09-12T11:22:47;22.40;78.40
14727;DHT22;7454;51.256;8.176;2023-09-12T11:25:20;22.40;78.30
14727;DHT22;7454;51.256;8.176;2023-09-12T11:30:16;22.40;78.30
14727;DHT22;7454;51.256;8.176;2023-09-12T11:32:47;22.40;78.20
14727;DHT22;7454;51.256;8.176;2023-09-12T11:35:13;22.40;78.40
14727;DHT22;7454;51.256;8.176;2023-09-12T11:37:40;22.40;78.30
14727;DHT22;7454;51.256;8.176;2023-09-12T11:40:17;22.40;78.20
14727;DHT22;7454;51.256;8.176;2023-09-12T11:42:44;22.40;78.30
14727;DHT22;7454;51.256;8.176;2023-09-12T11:45:12;22.40;78.30
14727;DHT22;7454;51.256;8.176;2023-09-12T11:47:41;22.40;78.50
14727;DHT22;7454;51.256;8.176;2023-09-12T11:50:07;22.50;78.40
14727;DHT22;7454;51.256;8.176;2023-09-12T11:52:37;22.50;78.60
14727;DHT22;7454;51.256;8.176;2023-09-12T11:55:05;22.50;78.60
14727;DHT22;7454;51.256;8.176;2023-09-12T11:57:32;22.50;78.40
14727;DHT22;7454;51.256;8.176;2023-09-12T11:59:58;22.60;78.60
14727;DHT22;7454;51.256;8.176;2023-09-12T12:02:23;22.60;78.40
14727;DHT22;7454;51.256;8.176;2023-09-12T12:04:49;22.70;78.50
14727;DHT22;7454;51.256;8.176;2023-09-12T12:07:15;22.70;78.40
14727;DHT22;7454;51.256;8.176;2023-09-12T12:09:41;22.70;78.30
14727;DHT22;7454;51.256;8.176;2023-09-12T12:12:10;22.70;78.30
14727;DHT22;7454;51.256;8.176;2023-09-12T12:14:38;22.80;78.20
14727;DHT22;7454;51.256;8.176;2023-09-12T12:17:10;22.70;78.20
14727;DHT22;7454;51.256;8.176;2023-09-12T12:19:37;22.80;78.30
14727;DHT22;7454;51.256;8.176;2023-09-12T12:22:03;22.80;78.20
14727;DHT22;7454;51.256;8.176;2023-09-12T12:24:39;22.90;78.40
14727;DHT22;7454;51.256;8.176;2023-09-12T12:27:16;22.90;78.20
14727;DHT22;7454;51.256;8.176;2023-09-12T12:29:42;22.90;78.40
14727;DHT22;7454;51.256;8.176;2023-09-12T12:32:09;22.90;78.10
14727;DHT22;7454;51.256;8.176;2023-09-12T12:34:35;22.90;78.00
14727;DHT22;7454;51.256;8.176;2023-09-12T12:37:01;22.90;78.10
14727;DHT22;7454;51.256;8.176;2023-09-12T12:39:27;23.00;78.20
14727;DHT22;7454;51.256;8.176;2023-09-12T12:41:53;23.00;78.20
14727;DHT22;7454;51.256;8.176;2023-09-12T12:44:19;23.00;78.20
14727;DHT22;7454;51.256;8.176;2023-09-12T12:46:49;23.00;78.20
14727;DHT22;7454;51.256;8.176;2023-09-12T12:49:15;23.00;78.20
14727;DHT22;7454;51.256;8.176;2023-09-12T12:51:41;23.00;78.10
14727;DHT22;7454;51.256;8.176;2023-09-12T12:54:08;23.10;78.20
14727;DHT22;7454;51.256;8.176;2023-09-12T12:56:33;23.10;78.20
14727;DHT22;7454;51.256;8.176;2023-09-12T12:59:00;23.10;78.40
14727;DHT22;7454;51.256;8.176;2023-09-12T13:01:30;23.20;78.00
14727;DHT22;7454;51.256;8.176;2023-09-12T13:03:56;23.30;78.10
14727;DHT22;7454;51.256;8.176;2023-09-12T13:06:22;23.30;78.10
14727;DHT22;7454;51.256;8.176;2023-09-12T13:08:48;23.40;78.10
14727;DHT22;7454;51.256;8.176;2023-09-12T13:11:15;23.30;77.90
14727;DHT22;7454;51.256;8.176;2023-09-12T13:13:41;23.40;78.10
14727;DHT22;7454;51.256;8.176;2023-09-12T13:16:08;23.40;78.30
14727;DHT22;7454;51.256;8.176;2023-09-12T13:18:36;23.50;78.20
14727;DHT22;7454;51.256;8.176;2023-09-12T13:21:02;23.50;78.10
14727;DHT22;7454;51.256;8.176;2023-09-12T13:23:29;23.50;77.90
14727;DHT22;7454;51.256;8.176;2023-09-12T13:25:55;23.50;78.10
14727;DHT22;7454;51.256;8.176;2023-09-12T13:28:21;23.60;77.90
14727;DHT22;7454;51.256;8.176;2023-09-12T13:30:49;23.60;78.10
14727;DHT22;7454;51.256;8.176;2023-09-12T13:33:14;23.60;77.80
14727;DHT22;7454;51.256;8.176;2023-09-12T13:35:41;23.60;78.00
14727;DHT22;7454;51.256;8.176;2023-09-12T13:38:06;23.70;77.90
14727;DHT22;7454;51.256;8.176;2023-09-12T13:40:40;23.70;77.90
14727;DHT22;7454;51.256;8.176;2023-09-12T13:43:07;23.70;78.00
14727;DHT22;7454;51.256;8.176;2023-09-12T13:45:33;23.70;78.00
14727;DHT22;7454;51.256;8.176;2023-09-12T13:47:59;23.70;78.00
14727;DHT22;7454;51.256;8.176;2023-09-12T13:50:25;23.70;77.90
14727;DHT22;7454;51.256;8.176;2023-09-12T13:52:59;23.70;77.90
14727;DHT22;7454;51.256;8.176;2023-09-12T13:55:29;23.70;78.10
14727;DHT22;7454;51.256;8.176;2023-09-12T13:57:55;23.70;78.10
14727;DHT22;7454;51.256;8.176;2023-09-12T14:00:20;23.70;78.00
14727;DHT22;7454;51.256;8.176;2023-09-12T14:02:46;23.70;77.90
14727;DHT22;7454;51.256;8.176;2023-09-12T14:05:12;23.70;77.90
14727;DHT22;7454;51.256;8.176;2023-09-12T14:07:38;23.70;77.80
14727;DHT22;7454;51.256;8.176;2023-09-12T14:10:05;23.60;77.70
14727;DHT22;7454;51.256;8.176;2023-09-12T14:12:31;23.70;77.70
14727;DHT22;7454;51.256;8.176;2023-09-12T14:14:57;23.70;77.80
14727;DHT22;7454;51.256;8.176;2023-09-12T14:17:23;23.70;77.90
14727;DHT22;7454;51.256;8.176;2023-09-12T14:19:49;23.70;77.80
14727;DHT22;7454;51.256;8.176;2023-09-12T14:22:14;23.70;77.80
14727;DHT22;7454;51.256;8.176;2023-09-12T14:24:40;23.70;77.80
14727;DHT22;7454;51.256;8.176;2023-09-12T14:27:06;23.70;77.70
14727;DHT22;7454;51.256;8.176;2023-09-12T14:29:32;23.60;77.70
14727;DHT22;7454;51.256;8.176;2023-09-12T14:31:57;23.60;77.70
14727;DHT22;7454;51.256;8.176;2023-09-12T14:34:23;23.60;77.80
14727;DHT22;7454;51.256;8.176;2023-09-12T14:36:55;23.60;77.60
14727;DHT22;7454;51.256;8.176;2023-09-12T14:39:21;23.50;77.80
14727;DHT22;7454;51.256;8.176;2023-09-12T14:41:47;23.50;77.70
14727;DHT22;7454;51.256;8.176;2023-09-12T14:44:26;23.50;77.70
14727;DHT22;7454;51.256;8.176;2023-09-12T14:46:53;23.50;77.80
14727;DHT22;7454;51.256;8.176;2023-09-12T14:49:19;23.40;77.90
14727;DHT22;7454;51.256;8.176;2023-09-12T14:51:45;23.40;78.00
14727;DHT22;7454;51.256;8.176;2023-09-12T14:54:11;23.40;77.90
14727;DHT22;7454;51.256;8.176;2023-09-12T14:56:37;23.30;78.00
14727;DHT22;7454;51.256;8.176;2023-09-12T14:59:03;23.20;77.90
14727;DHT22;7454;51.256;8.176;2023-09-12T15:01:29;23.20;78.00
14727;DHT22;7454;51.256;8.176;2023-09-12T15:03:55;23.20;78.10
14727;DHT22;7454;51.256;8.176;2023-09-12T15:06:21;23.10;78.00
14727;DHT22;7454;51.256;8.176;2023-09-12T15:08:47;23.10;78.10
14727;DHT22;7454;51.256;8.176;2023-09-12T15:11:13;23.00;78.10
14727;DHT22;7454;51.256;8.176;2023-09-12T15:13:39;23.00;78.10
14727;DHT22;7454;51.256;8.176;2023-09-12T15:16:05;22.90;78.10
14727;DHT22;7454;51.256;8.176;2023-09-12T15:18:30;22.90;78.30
14727;DHT22;7454;51.256;8.176;2023-09-12T15:20:57;22.90;78.20
14727;DHT22;7454;51.256;8.176;2023-09-12T15:23:23;22.90;78.30
14727;DHT22;7454;51.256;8.176;2023-09-12T15:25:50;22.90;78.20
14727;DHT22;7454;51.256;8.176;2023-09-12T15:28:16;22.80;78.20
14727;DHT22;7454;51.256;8.176;2023-09-12T15:30:42;22.80;78.30
14727;DHT22;7454;51.256;8.176;2023-09-12T15:33:08;22.80;78.30
14727;DHT22;7454;51.256;8.176;2023-09-12T15:35:33;22.80;78.20
14727;DHT22;7454;51.256;8.176;2023-09-12T15:37:59;22.80;78.30
14727;DHT22;7454;51.256;8.176;2023-09-12T15:40:26;22.70;78.10
14727;DHT22;7454;51.256;8.176;2023-09-12T15:42:52;22.70;78.20
14727;DHT22;7454;51.256;8.176;2023-09-12T15:45:17;22.70;78.20
14727;DHT22;7454;51.256;8.176;2023-09-12T15:47:45;22.70;78.20
14727;DHT22;7454;51.256;8.176;2023-09-12T15:50:11;22.70;78.20
14727;DHT22;7454;51.256;8.176;2023-09-12T15:52:38;22.60;78.20
14727;DHT22;7454;51.256;8.176;2023-09-12T15:55:05;22.70;78.30
14727;DHT22;7454;51.256;8.176;2023-09-12T15:57:31;22.70;78.30
14727;DHT22;7454;51.256;8.176;2023-09-12T15:59:56;22.70;78.20